aviador You're here:

KROG Decoded Metar

ROGERS in AR, USA
Report Time2017-07-21 07:58:00
UTC Time2017-07-21 08:38:30
Flight Rules vfr VFR
Wind150° at 04 kt
W.Decomp.*RWY 20: 2.4 kt HW 3.2 kt LCW
W.Rank150° ranks 2
Current wind is below 150° avg. (7.6)
Visibility9999 m
Phenomena:N/A
Clouds:N/A
Expected CloudBase > 800 ft AGL from Temp-Dew spread
CeilingNone
Temp24°C (ISA +12)
Dew Point22°C (89% RH)
QNH1018 hPa
Density Alt2,904 ft
Elevation1,362 ft
Report Wrong Elevation
Raw Report
KROG 210758Z AUTO 15004KT 10SM CLR 24/22 A3005 RMK AO2 SLP159
T02440222=

Extra information for KROG:More info

Metar Taf Metar & Taf Last 4 Metars F.Rules Stats Wind Profile Meteogram Temp Stats Airport Information Weather charts Add Link Nearby VenuesMetar ALERT Operation Metar Decoded Social comments

AIRNAV info for KROG